sensor_id;sensor_type;location;lat;lon;timestamp;temperature;humidity
32217;DHT22;67098;51.140;4.088;2023-04-06T00:01:40;12.40;56.90
32217;DHT22;67098;51.140;4.088;2023-04-06T00:04:06;12.40;56.90
32217;DHT22;67098;51.140;4.088;2023-04-06T00:06:32;12.40;56.90
32217;DHT22;67098;51.140;4.088;2023-04-06T00:08:59;12.40;57.00
32217;DHT22;67098;51.140;4.088;2023-04-06T00:11:25;12.40;57.00
32217;DHT22;67098;51.140;4.088;2023-04-06T00:13:51;12.40;57.20
32217;DHT22;67098;51.140;4.088;2023-04-06T00:16:17;12.40;57.40
32217;DHT22;67098;51.140;4.088;2023-04-06T00:18:43;12.40;57.40
32217;DHT22;67098;51.140;4.088;2023-04-06T00:21:13;12.40;57.40
32217;DHT22;67098;51.140;4.088;2023-04-06T00:23:40;12.40;57.60
32217;DHT22;67098;51.140;4.088;2023-04-06T00:26:06;12.30;57.60
32217;DHT22;67098;51.140;4.088;2023-04-06T00:28:32;12.30;57.30
32217;DHT22;67098;51.140;4.088;2023-04-06T00:30:57;12.30;57.20
32217;DHT22;67098;51.140;4.088;2023-04-06T00:33:23;12.30;57.30
32217;DHT22;67098;51.140;4.088;2023-04-06T00:35:49;12.30;57.40
32217;DHT22;67098;51.140;4.088;2023-04-06T00:38:16;12.20;57.30
32217;DHT22;67098;51.140;4.088;2023-04-06T00:40:43;12.20;57.10
32217;DHT22;67098;51.140;4.088;2023-04-06T00:43:12;12.20;56.80
32217;DHT22;67098;51.140;4.088;2023-04-06T00:45:41;12.20;56.60
32217;DHT22;67098;51.140;4.088;2023-04-06T00:48:08;12.10;56.40
32217;DHT22;67098;51.140;4.088;2023-04-06T00:50:34;12.00;56.40
32217;DHT22;67098;51.140;4.088;2023-04-06T00:53:00;12.00;56.60
32217;DHT22;67098;51.140;4.088;2023-04-06T00:55:29;12.00;56.40
32217;DHT22;67098;51.140;4.088;2023-04-06T00:57:57;11.90;56.50
32217;DHT22;67098;51.140;4.088;2023-04-06T01:00:23;11.90;56.60
32217;DHT22;67098;51.140;4.088;2023-04-06T01:02:49;11.80;56.60
32217;DHT22;67098;51.140;4.088;2023-04-06T01:05:15;11.80;56.70
32217;DHT22;67098;51.140;4.088;2023-04-06T01:07:41;11.80;56.80
32217;DHT22;67098;51.140;4.088;2023-04-06T01:10:07;11.70;56.90
32217;DHT22;67098;51.140;4.088;2023-04-06T01:12:33;11.70;56.90
32217;DHT22;67098;51.140;4.088;2023-04-06T01:14:59;11.70;56.80
32217;DHT22;67098;51.140;4.088;2023-04-06T01:17:25;11.60;56.70
32217;DHT22;67098;51.140;4.088;2023-04-06T01:19:50;11.60;56.70
32217;DHT22;67098;51.140;4.088;2023-04-06T01:22:19;11.50;56.70
32217;DHT22;67098;51.140;4.088;2023-04-06T01:24:45;11.50;56.90
32217;DHT22;67098;51.140;4.088;2023-04-06T01:27:12;11.50;56.90
32217;DHT22;67098;51.140;4.088;2023-04-06T01:29:38;11.50;56.90
32217;DHT22;67098;51.140;4.088;2023-04-06T01:32:07;11.50;57.00
32217;DHT22;67098;51.140;4.088;2023-04-06T01:34:32;11.40;57.20
32217;DHT22;67098;51.140;4.088;2023-04-06T01:36:58;11.50;57.40
32217;DHT22;67098;51.140;4.088;2023-04-06T01:39:24;11.40;57.20
32217;DHT22;67098;51.140;4.088;2023-04-06T01:41:50;11.40;57.20
32217;DHT22;67098;51.140;4.088;2023-04-06T01:44:18;11.40;57.30
32217;DHT22;67098;51.140;4.088;2023-04-06T01:46:44;11.30;57.30
32217;DHT22;67098;51.140;4.088;2023-04-06T01:49:11;11.30;57.40
32217;DHT22;67098;51.140;4.088;2023-04-06T01:51:37;11.30;57.30
32217;DHT22;67098;51.140;4.088;2023-04-06T01:54:03;11.30;57.30
32217;DHT22;67098;51.140;4.088;2023-04-06T01:56:29;11.30;57.30
32217;DHT22;67098;51.140;4.088;2023-04-06T01:58:54;11.30;57.40
32217;DHT22;67098;51.140;4.088;2023-04-06T02:01:21;11.30;57.40
32217;DHT22;67098;51.140;4.088;2023-04-06T02:03:46;11.30;57.50
32217;DHT22;67098;51.140;4.088;2023-04-06T02:06:12;11.30;57.60
32217;DHT22;67098;51.140;4.088;2023-04-06T02:08:37;11.20;57.60
32217;DHT22;67098;51.140;4.088;2023-04-06T02:11:03;11.20;57.60
32217;DHT22;67098;51.140;4.088;2023-04-06T02:13:29;11.20;57.70
32217;DHT22;67098;51.140;4.088;2023-04-06T02:15:55;11.20;57.70
32217;DHT22;67098;51.140;4.088;2023-04-06T02:18:20;11.10;57.60
32217;DHT22;67098;51.140;4.088;2023-04-06T02:20:46;11.10;57.50
32217;DHT22;67098;51.140;4.088;2023-04-06T02:23:12;11.10;57.80
32217;DHT22;67098;51.140;4.088;2023-04-06T02:25:38;11.10;57.80
32217;DHT22;67098;51.140;4.088;2023-04-06T02:28:04;11.10;57.80
32217;DHT22;67098;51.140;4.088;2023-04-06T02:30:29;11.10;58.00
32217;DHT22;67098;51.140;4.088;2023-04-06T02:32:57;11.10;57.90
32217;DHT22;67098;51.140;4.088;2023-04-06T02:35:24;11.10;58.00
32217;DHT22;67098;51.140;4.088;2023-04-06T02:37:50;11.00;58.10
32217;DHT22;67098;51.140;4.088;2023-04-06T02:40:15;11.00;58.30
32217;DHT22;67098;51.140;4.088;2023-04-06T02:42:41;11.00;58.30
32217;DHT22;67098;51.140;4.088;2023-04-06T02:45:07;11.10;58.40
32217;DHT22;67098;51.140;4.088;2023-04-06T02:47:33;11.00;58.50
32217;DHT22;67098;51.140;4.088;2023-04-06T02:49:59;11.10;58.70
32217;DHT22;67098;51.140;4.088;2023-04-06T02:52:25;11.10;58.60
32217;DHT22;67098;51.140;4.088;2023-04-06T02:54:50;11.10;58.80
32217;DHT22;67098;51.140;4.088;2023-04-06T02:57:16;11.00;59.00
32217;DHT22;67098;51.140;4.088;2023-04-06T02:59:42;11.10;59.20
32217;DHT22;67098;51.140;4.088;2023-04-06T03:02:08;11.10;59.00
32217;DHT22;67098;51.140;4.088;2023-04-06T03:04:33;11.20;59.10
32217;DHT22;67098;51.140;4.088;2023-04-06T03:06:59;11.20;59.20
32217;DHT22;67098;51.140;4.088;2023-04-06T03:09:25;11.10;59.30
32217;DHT22;67098;51.140;4.088;2023-04-06T03:11:51;11.20;59.10
32217;DHT22;67098;51.140;4.088;2023-04-06T03:14:16;11.20;58.90
32217;DHT22;67098;51.140;4.088;2023-04-06T03:16:47;11.20;58.90
32217;DHT22;67098;51.140;4.088;2023-04-06T03:19:13;11.30;59.00
32217;DHT22;67098;51.140;4.088;2023-04-06T03:21:38;11.10;59.20
32217;DHT22;67098;51.140;4.088;2023-04-06T03:24:05;11.20;59.20
32217;DHT22;67098;51.140;4.088;2023-04-06T03:26:31;11.30;59.10
32217;DHT22;67098;51.140;4.088;2023-04-06T03:28:56;11.30;59.00
32217;DHT22;67098;51.140;4.088;2023-04-06T03:31:22;11.40;58.90
32217;DHT22;67098;51.140;4.088;2023-04-06T03:33:48;11.30;58.90
32217;DHT22;67098;51.140;4.088;2023-04-06T03:36:13;11.30;58.90
32217;DHT22;67098;51.140;4.088;2023-04-06T03:38:40;11.30;59.00
32217;DHT22;67098;51.140;4.088;2023-04-06T03:41:05;11.40;59.10
32217;DHT22;67098;51.140;4.088;2023-04-06T03:43:31;11.40;59.20
32217;DHT22;67098;51.140;4.088;2023-04-06T03:45:56;11.30;59.40
32217;DHT22;67098;51.140;4.088;2023-04-06T03:48:22;11.20;59.60
32217;DHT22;67098;51.140;4.088;2023-04-06T03:50:48;11.10;59.90
32217;DHT22;67098;51.140;4.088;2023-04-06T03:53:13;11.10;60.00
32217;DHT22;67098;51.140;4.088;2023-04-06T03:55:39;11.10;59.90
32217;DHT22;67098;51.140;4.088;2023-04-06T03:58:05;11.10;60.20
32217;DHT22;67098;51.140;4.088;2023-04-06T04:00:30;11.20;60.20
32217;DHT22;67098;51.140;4.088;2023-04-06T04:02:58;11.20;60.40
32217;DHT22;67098;51.140;4.088;2023-04-06T04:05:24;11.00;60.90
32217;DHT22;67098;51.140;4.088;2023-04-06T04:07:51;11.10;61.00
32217;DHT22;67098;51.140;4.088;2023-04-06T04:10:17;11.00;61.30
32217;DHT22;67098;51.140;4.088;2023-04-06T04:12:43;11.00;61.40
32217;DHT22;67098;51.140;4.088;2023-04-06T04:15:09;11.20;61.00
32217;DHT22;67098;51.140;4.088;2023-04-06T04:17:35;11.30;60.70
32217;DHT22;67098;51.140;4.088;2023-04-06T04:20:01;11.30;60.80
32217;DHT22;67098;51.140;4.088;2023-04-06T04:22:26;11.30;60.90
32217;DHT22;67098;51.140;4.088;2023-04-06T04:24:53;11.40;61.00
32217;DHT22;67098;51.140;4.088;2023-04-06T04:27:19;11.40;61.40
32217;DHT22;67098;51.140;4.088;2023-04-06T04:29:44;11.40;61.60
32217;DHT22;67098;51.140;4.088;2023-04-06T04:32:10;11.40;61.60
32217;DHT22;67098;51.140;4.088;2023-04-06T04:34:36;11.40;61.80
32217;DHT22;67098;51.140;4.088;2023-04-06T04:37:05;11.40;61.80
32217;DHT22;67098;51.140;4.088;2023-04-06T04:39:31;11.40;61.80
32217;DHT22;67098;51.140;4.088;2023-04-06T04:41:57;11.50;62.10
32217;DHT22;67098;51.140;4.088;2023-04-06T04:44:22;11.50;62.10
32217;DHT22;67098;51.140;4.088;2023-04-06T04:46:48;11.50;62.10
32217;DHT22;67098;51.140;4.088;2023-04-06T04:49:14;11.50;62.40
32217;DHT22;67098;51.140;4.088;2023-04-06T04:51:40;11.40;62.50
32217;DHT22;67098;51.140;4.088;2023-04-06T04:54:05;11.50;62.50
32217;DHT22;67098;51.140;4.088;2023-04-06T04:56:31;11.50;62.70
32217;DHT22;67098;51.140;4.088;2023-04-06T04:58:57;11.50;62.70
32217;DHT22;67098;51.140;4.088;2023-04-06T05:01:22;11.50;62.70
32217;DHT22;67098;51.140;4.088;2023-04-06T05:03:48;11.50;63.20
32217;DHT22;67098;51.140;4.088;2023-04-06T05:06:13;11.40;63.40
32217;DHT22;67098;51.140;4.088;2023-04-06T05:08:41;11.50;63.40
32217;DHT22;67098;51.140;4.088;2023-04-06T05:11:06;11.50;63.90
32217;DHT22;67098;51.140;4.088;2023-04-06T05:13:32;11.40;64.20
32217;DHT22;67098;51.140;4.088;2023-04-06T05:15:58;11.30;64.40
32217;DHT22;67098;51.140;4.088;2023-04-06T05:18:23;11.20;64.60
32217;DHT22;67098;51.140;4.088;2023-04-06T05:20:49;11.30;64.60
32217;DHT22;67098;51.140;4.088;2023-04-06T05:23:17;11.30;64.60
32217;DHT22;67098;51.140;4.088;2023-04-06T05:25:42;11.30;64.90
32217;DHT22;67098;51.140;4.088;2023-04-06T05:28:08;11.30;65.10
32217;DHT22;67098;51.140;4.088;2023-04-06T05:30:34;11.20;65.60
32217;DHT22;67098;51.140;4.088;2023-04-06T05:33:01;11.20;66.10
32217;DHT22;67098;51.140;4.088;2023-04-06T05:35:26;11.30;66.00
32217;DHT22;67098;51.140;4.088;2023-04-06T05:37:52;11.40;65.90
32217;DHT22;67098;51.140;4.088;2023-04-06T05:40:18;11.30;66.30
32217;DHT22;67098;51.140;4.088;2023-04-06T05:42:43;11.40;66.10
32217;DHT22;67098;51.140;4.088;2023-04-06T05:45:10;11.40;66.30
32217;DHT22;67098;51.140;4.088;2023-04-06T05:47:37;11.40;66.60
32217;DHT22;67098;51.140;4.088;2023-04-06T05:50:03;11.40;67.10
32217;DHT22;67098;51.140;4.088;2023-04-06T05:52:28;11.40;67.20
32217;DHT22;67098;51.140;4.088;2023-04-06T05:54:54;11.40;67.20
32217;DHT22;67098;51.140;4.088;2023-04-06T05:57:20;11.40;67.90
32217;DHT22;67098;51.140;4.088;2023-04-06T05:59:45;11.30;68.30
32217;DHT22;67098;51.140;4.088;2023-04-06T06:02:11;11.30;69.00
32217;DHT22;67098;51.140;4.088;2023-04-06T06:04:37;11.30;69.40
32217;DHT22;67098;51.140;4.088;2023-04-06T06:07:02;11.40;69.70
32217;DHT22;67098;51.140;4.088;2023-04-06T06:09:28;11.20;70.80
32217;DHT22;67098;51.140;4.088;2023-04-06T06:11:55;11.30;70.80
32217;DHT22;67098;51.140;4.088;2023-04-06T06:14:20;11.50;70.90
32217;DHT22;67098;51.140;4.088;2023-04-06T06:16:47;11.50;71.50
32217;DHT22;67098;51.140;4.088;2023-04-06T06:19:13;11.50;72.00
32217;DHT22;67098;51.140;4.088;2023-04-06T06:21:39;11.50;72.00
32217;DHT22;67098;51.140;4.088;2023-04-06T06:24:05;11.60;72.80
32217;DHT22;67098;51.140;4.088;2023-04-06T06:26:31;11.60;72.90
32217;DHT22;67098;51.140;4.088;2023-04-06T06:28:56;11.60;73.50
32217;DHT22;67098;51.140;4.088;2023-04-06T06:31:22;11.60;74.00
32217;DHT22;67098;51.140;4.088;2023-04-06T06:33:48;11.60;74.60
32217;DHT22;67098;51.140;4.088;2023-04-06T06:36:18;11.70;74.70
32217;DHT22;67098;51.140;4.088;2023-04-06T06:38:44;11.70;75.10
32217;DHT22;67098;51.140;4.088;2023-04-06T06:41:10;11.70;75.30
32217;DHT22;67098;51.140;4.088;2023-04-06T06:43:36;11.70;75.70
32217;DHT22;67098;51.140;4.088;2023-04-06T06:46:02;11.70;76.00
32217;DHT22;67098;51.140;4.088;2023-04-06T06:48:28;11.70;76.30
32217;DHT22;67098;51.140;4.088;2023-04-06T06:50:54;11.70;76.70
32217;DHT22;67098;51.140;4.088;2023-04-06T06:53:19;11.70;76.70
32217;DHT22;67098;51.140;4.088;2023-04-06T06:55:45;11.80;76.90
32217;DHT22;67098;51.140;4.088;2023-04-06T06:58:11;11.80;76.90
32217;DHT22;67098;51.140;4.088;2023-04-06T07:00:37;11.80;77.30
32217;DHT22;67098;51.140;4.088;2023-04-06T07:03:03;11.80;77.70
32217;DHT22;67098;51.140;4.088;2023-04-06T07:05:28;11.80;78.20
32217;DHT22;67098;51.140;4.088;2023-04-06T07:07:55;11.80;77.90
32217;DHT22;67098;51.140;4.088;2023-04-06T07:10:21;11.80;78.30
32217;DHT22;67098;51.140;4.088;2023-04-06T07:12:47;11.80;78.50
32217;DHT22;67098;51.140;4.088;2023-04-06T07:15:12;11.80;78.90
32217;DHT22;67098;51.140;4.088;2023-04-06T07:17:38;11.80;79.10
32217;DHT22;67098;51.140;4.088;2023-04-06T07:20:04;11.80;79.30
32217;DHT22;67098;51.140;4.088;2023-04-06T07:22:30;12.00;79.70
32217;DHT22;67098;51.140;4.088;2023-04-06T07:24:56;12.00;79.80
32217;DHT22;67098;51.140;4.088;2023-04-06T07:27:21;12.20;79.70
32217;DHT22;67098;51.140;4.088;2023-04-06T07:29:47;12.30;79.50
32217;DHT22;67098;51.140;4.088;2023-04-06T07:32:13;12.40;79.60
32217;DHT22;67098;51.140;4.088;2023-04-06T07:34:38;12.40;80.00
32217;DHT22;67098;51.140;4.088;2023-04-06T07:37:04;12.50;80.20
32217;DHT22;67098;51.140;4.088;2023-04-06T07:39:30;12.60;80.00
32217;DHT22;67098;51.140;4.088;2023-04-06T07:41:56;12.70;79.90
32217;DHT22;67098;51.140;4.088;2023-04-06T07:44:22;12.80;79.90
32217;DHT22;67098;51.140;4.088;2023-04-06T07:46:48;12.80;80.00
32217;DHT22;67098;51.140;4.088;2023-04-06T07:49:13;12.80;79.90
32217;DHT22;67098;51.140;4.088;2023-04-06T07:51:39;12.80;79.70
32217;DHT22;67098;51.140;4.088;2023-04-06T07:54:05;12.80;79.40
32217;DHT22;67098;51.140;4.088;2023-04-06T07:56:31;12.80;79.80
32217;DHT22;67098;51.140;4.088;2023-04-06T07:58:57;12.80;80.10
32217;DHT22;67098;51.140;4.088;2023-04-06T08:01:23;12.80;80.30
32217;DHT22;67098;51.140;4.088;2023-04-06T08:03:50;12.90;80.70
32217;DHT22;67098;51.140;4.088;2023-04-06T08:06:15;12.80;80.60
32217;DHT22;67098;51.140;4.088;2023-04-06T08:08:42;12.70;81.00
32217;DHT22;67098;51.140;4.088;2023-04-06T08:11:07;12.60;81.30
32217;DHT22;67098;51.140;4.088;2023-04-06T08:13:34;12.70;81.60
32217;DHT22;67098;51.140;4.088;2023-04-06T08:16:00;12.70;81.60
32217;DHT22;67098;51.140;4.088;2023-04-06T08:18:26;12.70;81.80
32217;DHT22;67098;51.140;4.088;2023-04-06T08:20:52;12.60;81.80
32217;DHT22;67098;51.140;4.088;2023-04-06T08:23:18;12.70;81.60
32217;DHT22;67098;51.140;4.088;2023-04-06T08:25:43;12.70;82.20
32217;DHT22;67098;51.140;4.088;2023-04-06T08:28:09;12.70;82.00
32217;DHT22;67098;51.140;4.088;2023-04-06T08:30:35;12.70;82.20
32217;DHT22;67098;51.140;4.088;2023-04-06T08:33:01;12.90;81.90
32217;DHT22;67098;51.140;4.088;2023-04-06T08:35:27;12.90;81.70
32217;DHT22;67098;51.140;4.088;2023-04-06T08:37:53;13.00;82.20
32217;DHT22;67098;51.140;4.088;2023-04-06T08:40:19;12.90;82.90
32217;DHT22;67098;51.140;4.088;2023-04-06T08:42:50;13.00;83.00
32217;DHT22;67098;51.140;4.088;2023-04-06T08:45:17;13.00;82.80
32217;DHT22;67098;51.140;4.088;2023-04-06T08:47:52;13.10;82.70
32217;DHT22;67098;51.140;4.088;2023-04-06T08:50:19;13.00;83.90
32217;DHT22;67098;51.140;4.088;2023-04-06T08:52:47;13.00;83.70
32217;DHT22;67098;51.140;4.088;2023-04-06T08:55:14;13.00;83.80
32217;DHT22;67098;51.140;4.088;2023-04-06T08:57:41;13.00;83.90
32217;DHT22;67098;51.140;4.088;2023-04-06T09:00:09;13.00;83.90
32217;DHT22;67098;51.140;4.088;2023-04-06T09:02:38;13.20;83.30
32217;DHT22;67098;51.140;4.088;2023-04-06T09:05:07;13.20;84.20
32217;DHT22;67098;51.140;4.088;2023-04-06T09:07:36;13.30;83.70
32217;DHT22;67098;51.140;4.088;2023-04-06T09:10:02;13.20;84.10
32217;DHT22;67098;51.140;4.088;2023-04-06T09:12:29;13.20;84.10
32217;DHT22;67098;51.140;4.088;2023-04-06T09:14:56;13.20;84.10
32217;DHT22;67098;51.140;4.088;2023-04-06T09:17:22;13.20;84.30
32217;DHT22;67098;51.140;4.088;2023-04-06T09:19:49;13.20;84.40
32217;DHT22;67098;51.140;4.088;2023-04-06T09:22:15;13.20;84.80
32217;DHT22;67098;51.140;4.088;2023-04-06T09:24:51;13.20;85.00
32217;DHT22;67098;51.140;4.088;2023-04-06T09:27:17;13.20;84.90
32217;DHT22;67098;51.140;4.088;2023-04-06T09:29:44;13.20;85.00
32217;DHT22;67098;51.140;4.088;2023-04-06T09:32:11;13.10;85.70
32217;DHT22;67098;51.140;4.088;2023-04-06T09:34:38;13.20;85.80
32217;DHT22;67098;51.140;4.088;2023-04-06T09:37:17;13.30;85.80
32217;DHT22;67098;51.140;4.088;2023-04-06T09:39:44;13.50;85.40
32217;DHT22;67098;51.140;4.088;2023-04-06T09:42:10;13.40;85.40
32217;DHT22;67098;51.140;4.088;2023-04-06T09:44:36;13.30;86.00
32217;DHT22;67098;51.140;4.088;2023-04-06T09:47:05;13.60;85.20
32217;DHT22;67098;51.140;4.088;2023-04-06T09:49:33;13.70;84.90
32217;DHT22;67098;51.140;4.088;2023-04-06T09:52:02;13.80;85.40
32217;DHT22;67098;51.140;4.088;2023-04-06T09:54:31;13.80;85.60
32217;DHT22;67098;51.140;4.088;2023-04-06T09:59:37;13.90;85.70
32217;DHT22;67098;51.140;4.088;2023-04-06T10:02:05;14.00;85.40
32217;DHT22;67098;51.140;4.088;2023-04-06T10:04:43;14.10;85.10
32217;DHT22;67098;51.140;4.088;2023-04-06T10:07:11;14.10;84.60
32217;DHT22;67098;51.140;4.088;2023-04-06T10:09:38;14.00;85.20
32217;DHT22;67098;51.140;4.088;2023-04-06T10:12:07;13.90;85.50
32217;DHT22;67098;51.140;4.088;2023-04-06T10:14:33;13.90;84.90
32217;DHT22;67098;51.140;4.088;2023-04-06T10:17:05;14.00;84.90
32217;DHT22;67098;51.140;4.088;2023-04-06T10:22:21;13.80;86.10
32217;DHT22;67098;51.140;4.088;2023-04-06T10:24:48;13.80;86.20
32217;DHT22;67098;51.140;4.088;2023-04-06T10:27:14;13.80;86.50
32217;DHT22;67098;51.140;4.088;2023-04-06T10:29:46;13.80;86.50
32217;DHT22;67098;51.140;4.088;2023-04-06T10:32:14;13.80;86.50
32217;DHT22;67098;51.140;4.088;2023-04-06T10:34:39;13.60;86.50
32217;DHT22;67098;51.140;4.088;2023-04-06T10:37:15;13.60;87.30
32217;DHT22;67098;51.140;4.088;2023-04-06T10:39:53;13.60;87.20
32217;DHT22;67098;51.140;4.088;2023-04-06T10:42:36;13.50;88.20
32217;DHT22;67098;51.140;4.088;2023-04-06T10:45:06;13.60;88.10
32217;DHT22;67098;51.140;4.088;2023-04-06T10:47:39;13.40;89.10
32217;DHT22;67098;51.140;4.088;2023-04-06T10:50:06;13.50;88.80
32217;DHT22;67098;51.140;4.088;2023-04-06T10:52:31;13.60;89.00
32217;DHT22;67098;51.140;4.088;2023-04-06T10:54:57;13.60;89.00
32217;DHT22;67098;51.140;4.088;2023-04-06T10:57:30;13.80;88.90
32217;DHT22;67098;51.140;4.088;2023-04-06T10:59:57;13.70;88.90
32217;DHT22;67098;51.140;4.088;2023-04-06T11:02:23;13.60;90.00
32217;DHT22;67098;51.140;4.088;2023-04-06T11:04:58;13.70;90.00
32217;DHT22;67098;51.140;4.088;2023-04-06T11:07:27;13.70;90.00
32217;DHT22;67098;51.140;4.088;2023-04-06T11:09:56;13.80;90.00
32217;DHT22;67098;51.140;4.088;2023-04-06T11:12:26;13.60;89.80
32217;DHT22;67098;51.140;4.088;2023-04-06T11:14:57;13.70;89.70
32217;DHT22;67098;51.140;4.088;2023-04-06T11:17:30;13.70;89.40
32217;DHT22;67098;51.140;4.088;2023-04-06T11:19:57;13.60;90.20
32217;DHT22;67098;51.140;4.088;2023-04-06T11:22:24;13.40;90.30
32217;DHT22;67098;51.140;4.088;2023-04-06T11:24:50;13.40;90.30
32217;DHT22;67098;51.140;4.088;2023-04-06T11:27:17;13.30;90.70
32217;DHT22;67098;51.140;4.088;2023-04-06T11:29:44;13.40;90.70
32217;DHT22;67098;51.140;4.088;2023-04-06T11:32:21;13.50;90.40
32217;DHT22;67098;51.140;4.088;2023-04-06T11:34:47;13.30;90.90
32217;DHT22;67098;51.140;4.088;2023-04-06T11:37:13;13.30;91.20
32217;DHT22;67098;51.140;4.088;2023-04-06T11:39:46;12.90;91.80
32217;DHT22;67098;51.140;4.088;2023-04-06T11:42:13;12.80;91.80
32217;DHT22;67098;51.140;4.088;2023-04-06T11:44:40;12.70;92.30
32217;DHT22;67098;51.140;4.088;2023-04-06T11:47:10;12.70;92.60
32217;DHT22;67098;51.140;4.088;2023-04-06T11:49:41;12.90;92.40
32217;DHT22;67098;51.140;4.088;2023-04-06T11:52:24;13.10;92.10
32217;DHT22;67098;51.140;4.088;2023-04-06T11:54:52;13.10;92.00
32217;DHT22;67098;51.140;4.088;2023-04-06T11:57:19;13.10;92.10
32217;DHT22;67098;51.140;4.088;2023-04-06T11:59:45;12.90;92.30
32217;DHT22;67098;51.140;4.088;2023-04-06T12:02:11;12.90;92.50
32217;DHT22;67098;51.140;4.088;2023-04-06T12:04:37;12.90;92.70
32217;DHT22;67098;51.140;4.088;2023-04-06T12:07:03;13.00;92.80
32217;DHT22;67098;51.140;4.088;2023-04-06T12:09:29;13.10;93.10
32217;DHT22;67098;51.140;4.088;2023-04-06T12:11:55;13.30;92.80
32217;DHT22;67098;51.140;4.088;2023-04-06T12:14:21;13.40;92.60
32217;DHT22;67098;51.140;4.088;2023-04-06T12:16:47;13.60;92.20
32217;DHT22;67098;51.140;4.088;2023-04-06T12:19:13;13.50;92.40
32217;DHT22;67098;51.140;4.088;2023-04-06T12:21:39;13.50;92.40
32217;DHT22;67098;51.140;4.088;2023-04-06T12:24:06;13.50;92.10
32217;DHT22;67098;51.140;4.088;2023-04-06T12:26:32;13.70;92.00
32217;DHT22;67098;51.140;4.088;2023-04-06T12:28:59;13.80;91.90
32217;DHT22;67098;51.140;4.088;2023-04-06T12:31:32;13.80;91.80
32217;DHT22;67098;51.140;4.088;2023-04-06T12:33:58;13.70;91.90
32217;DHT22;67098;51.140;4.088;2023-04-06T12:36:24;13.60;92.40
32217;DHT22;67098;51.140;4.088;2023-04-06T12:38:50;13.60;92.30
32217;DHT22;67098;51.140;4.088;2023-04-06T12:41:19;13.50;92.60
32217;DHT22;67098;51.140;4.088;2023-04-06T12:43:46;13.60;92.30
32217;DHT22;67098;51.140;4.088;2023-04-06T12:46:12;13.50;92.50
32217;DHT22;67098;51.140;4.088;2023-04-06T12:48:38;13.40;92.30
32217;DHT22;67098;51.140;4.088;2023-04-06T12:51:05;13.30;92.70
32217;DHT22;67098;51.140;4.088;2023-04-06T12:53:31;13.20;92.90
32217;DHT22;67098;51.140;4.088;2023-04-06T12:55:58;13.10;92.90
32217;DHT22;67098;51.140;4.088;2023-04-06T12:58:25;13.10;93.00
32217;DHT22;67098;51.140;4.088;2023-04-06T13:00:55;13.10;93.10
32217;DHT22;67098;51.140;4.088;2023-04-06T13:03:22;13.10;92.90
32217;DHT22;67098;51.140;4.088;2023-04-06T13:05:50;13.20;92.90
32217;DHT22;67098;51.140;4.088;2023-04-06T13:08:17;13.20;92.80
32217;DHT22;67098;51.140;4.088;2023-04-06T13:10:52;13.20;93.20
32217;DHT22;67098;51.140;4.088;2023-04-06T13:13:25;13.00;93.30
32217;DHT22;67098;51.140;4.088;2023-04-06T13:15:58;13.10;93.30
32217;DHT22;67098;51.140;4.088;2023-04-06T13:18:24;12.90;93.70
32217;DHT22;67098;51.140;4.088;2023-04-06T13:20:50;13.00;93.50
32217;DHT22;67098;51.140;4.088;2023-04-06T13:23:16;13.10;93.60
32217;DHT22;67098;51.140;4.088;2023-04-06T13:25:42;13.10;93.90
32217;DHT22;67098;51.140;4.088;2023-04-06T13:28:08;13.20;94.00
32217;DHT22;67098;51.140;4.088;2023-04-06T13:30:35;13.20;93.90
32217;DHT22;67098;51.140;4.088;2023-04-06T13:33:01;13.20;93.90
32217;DHT22;67098;51.140;4.088;2023-04-06T13:35:27;13.00;94.00
32217;DHT22;67098;51.140;4.088;2023-04-06T13:37:53;12.90;94.10
32217;DHT22;67098;51.140;4.088;2023-04-06T13:40:19;12.80;94.30
32217;DHT22;67098;51.140;4.088;2023-04-06T13:42:44;12.80;94.50
32217;DHT22;67098;51.140;4.088;2023-04-06T13:45:12;13.00;94.40
32217;DHT22;67098;51.140;4.088;2023-04-06T13:47:37;13.00;94.40
32217;DHT22;67098;51.140;4.088;2023-04-06T13:50:03;13.00;94.40
32217;DHT22;67098;51.140;4.088;2023-04-06T13:52:29;13.10;94.20
32217;DHT22;67098;51.140;4.088;2023-04-06T13:54:55;13.20;94.10
32217;DHT22;67098;51.140;4.088;2023-04-06T13:57:21;13.20;94.40
32217;DHT22;67098;51.140;4.088;2023-04-06T13:59:46;13.20;94.50
32217;DHT22;67098;51.140;4.088;2023-04-06T14:02:12;13.20;94.50
32217;DHT22;67098;51.140;4.088;2023-04-06T14:04:38;13.40;94.20
32217;DHT22;67098;51.140;4.088;2023-04-06T14:07:04;13.50;94.10
32217;DHT22;67098;51.140;4.088;2023-04-06T14:09:33;13.50;94.10
32217;DHT22;67098;51.140;4.088;2023-04-06T14:11:59;13.60;93.90
32217;DHT22;67098;51.140;4.088;2023-04-06T14:14:24;13.60;93.70
32217;DHT22;67098;51.140;4.088;2023-04-06T14:16:51;13.50;93.80
32217;DHT22;67098;51.140;4.088;2023-04-06T14:19:17;13.50;93.90
32217;DHT22;67098;51.140;4.088;2023-04-06T14:21:44;13.60;93.90
32217;DHT22;67098;51.140;4.088;2023-04-06T14:24:10;13.60;93.80
32217;DHT22;67098;51.140;4.088;2023-04-06T14:26:36;13.50;94.10
32217;DHT22;67098;51.140;4.088;2023-04-06T14:29:03;13.60;94.10
32217;DHT22;67098;51.140;4.088;2023-04-06T14:31:29;13.60;94.00
32217;DHT22;67098;51.140;4.088;2023-04-06T14:33:55;13.60;94.00
32217;DHT22;67098;51.140;4.088;2023-04-06T14:36:21;13.70;94.00
32217;DHT22;67098;51.140;4.088;2023-04-06T14:38:47;13.70;93.90
32217;DHT22;67098;51.140;4.088;2023-04-06T14:41:17;13.70;93.90
32217;DHT22;67098;51.140;4.088;2023-04-06T14:43:43;13.70;94.20
32217;DHT22;67098;51.140;4.088;2023-04-06T14:46:09;13.80;94.00
32217;DHT22;67098;51.140;4.088;2023-04-06T14:48:35;13.90;94.00
32217;DHT22;67098;51.140;4.088;2023-04-06T14:51:01;13.90;94.10
32217;DHT22;67098;51.140;4.088;2023-04-06T14:53:27;13.90;94.50
32217;DHT22;67098;51.140;4.088;2023-04-06T14:55:54;13.90;94.50
32217;DHT22;67098;51.140;4.088;2023-04-06T14:58:20;13.90;94.40
32217;DHT22;67098;51.140;4.088;2023-04-06T15:00:47;13.90;94.50
32217;DHT22;67098;51.140;4.088;2023-04-06T15:03:13;14.00;94.30
32217;DHT22;67098;51.140;4.088;2023-04-06T15:05:39;14.00;94.40
32217;DHT22;67098;51.140;4.088;2023-04-06T15:08:05;14.10;94.40
32217;DHT22;67098;51.140;4.088;2023-04-06T15:10:33;14.00;94.70
32217;DHT22;67098;51.140;4.088;2023-04-06T15:12:59;13.90;94.80
32217;DHT22;67098;51.140;4.088;2023-04-06T15:15:25;14.00;94.70
32217;DHT22;67098;51.140;4.088;2023-04-06T15:17:51;14.10;94.60
32217;DHT22;67098;51.140;4.088;2023-04-06T15:20:17;14.10;94.60
32217;DHT22;67098;51.140;4.088;2023-04-06T15:22:43;14.20;94.60
32217;DHT22;67098;51.140;4.088;2023-04-06T15:25:09;14.30;94.60
32217;DHT22;67098;51.140;4.088;2023-04-06T15:27:34;14.30;94.60
32217;DHT22;67098;51.140;4.088;2023-04-06T15:30:00;14.30;94.70
32217;DHT22;67098;51.140;4.088;2023-04-06T15:32:26;14.10;94.80